createdAt,value
2023-04-26T00:00:45.294Z,100.00
2023-04-26T00:05:46.857Z,100.00
2023-04-26T00:10:48.369Z,100.00
2023-04-26T00:15:50.044Z,100.00
2023-04-26T00:20:51.628Z,100.00
2023-04-26T00:25:53.158Z,100.00
2023-04-26T00:30:54.764Z,100.00
2023-04-26T00:35:56.368Z,100.00
2023-04-26T00:40:57.991Z,100.00
2023-04-26T00:45:59.640Z,100.00
2023-04-26T00:51:01.423Z,100.00
2023-04-26T00:56:03.486Z,100.00
2023-04-26T01:01:05.144Z,100.00
2023-04-26T01:06:07.133Z,100.00
2023-04-26T01:11:12.001Z,100.00
2023-04-26T01:16:15.144Z,100.00
2023-04-26T01:21:23.877Z,100.00
2023-04-26T01:26:25.869Z,100.00
2023-04-26T01:31:29.052Z,100.00
2023-04-26T01:36:30.748Z,100.00
2023-04-26T01:41:34.004Z,100.00
2023-04-26T01:46:35.826Z,100.00
2023-04-26T01:51:37.732Z,100.00
2023-04-26T01:56:42.061Z,100.00
2023-04-26T02:01:43.633Z,100.00
2023-04-26T02:06:45.793Z,100.00
2023-04-26T02:11:47.671Z,100.00
2023-04-26T02:16:49.702Z,100.00
2023-04-26T02:21:56.465Z,100.00
2023-04-26T02:26:57.929Z,100.00
2023-04-26T02:31:59.708Z,100.00
2023-04-26T02:37:01.955Z,100.00
2023-04-26T02:42:03.775Z,100.00
2023-04-26T02:47:05.689Z,100.00
2023-04-26T02:52:07.592Z,100.00
2023-04-26T02:57:09.891Z,100.00
2023-04-26T03:02:11.524Z,100.00
2023-04-26T03:07:13.476Z,100.00
2023-04-26T03:12:14.986Z,100.00
2023-04-26T03:17:16.640Z,100.00
2023-04-26T03:22:18.623Z,100.00
2023-04-26T03:27:20.361Z,100.00
2023-04-26T03:32:22.318Z,100.00
2023-04-26T03:37:24.662Z,100.00
2023-04-26T03:42:33.686Z,100.00
2023-04-26T03:47:35.401Z,100.00
2023-04-26T03:52:37.756Z,100.00
2023-04-26T03:57:40.286Z,100.00
2023-04-26T04:02:43.025Z,100.00
2023-04-26T04:07:48.440Z,100.00
2023-04-26T04:12:51.354Z,100.00
2023-04-26T04:17:53.410Z,100.00
2023-04-26T04:22:56.487Z,100.00
2023-04-26T04:27:58.198Z,100.00
2023-04-26T04:33:00.066Z,100.00
2023-04-26T04:38:01.689Z,100.00
2023-04-26T04:43:04.426Z,100.00
2023-04-26T04:48:07.939Z,100.00
2023-04-26T04:53:11.119Z,100.00
2023-04-26T04:58:12.837Z,100.00
2023-04-26T05:03:15.218Z,100.00
2023-04-26T05:08:17.555Z,100.00
2023-04-26T05:13:19.471Z,100.00
2023-04-26T05:18:21.430Z,100.00
2023-04-26T05:23:23.927Z,100.00
2023-04-26T05:28:25.995Z,100.00
2023-04-26T05:33:56.805Z,100.00
2023-04-26T05:39:04.628Z,100.00
2023-04-26T05:44:07.064Z,100.00
2023-04-26T05:49:09.125Z,100.00
2023-04-26T05:54:10.863Z,100.00
2023-04-26T05:59:13.300Z,100.00
2023-04-26T06:04:15.554Z,100.00
2023-04-26T06:09:33.031Z,100.00
2023-04-26T06:14:34.806Z,100.00
2023-04-26T06:19:41.015Z,100.00
2023-04-26T06:24:42.978Z,97.34
2023-04-26T06:29:44.872Z,92.86
2023-04-26T06:34:46.969Z,87.69
2023-04-26T06:39:48.753Z,85.84
2023-04-26T06:44:50.995Z,83.36
2023-04-26T06:49:52.648Z,77.38
2023-04-26T06:54:57.634Z,77.96
2023-04-26T06:59:59.743Z,71.64
2023-04-26T07:05:01.922Z,75.08
2023-04-26T07:10:04.174Z,82.84
2023-04-26T07:15:06.602Z,80.34
2023-04-26T07:20:08.844Z,78.48
2023-04-26T07:25:10.333Z,82.17
2023-04-26T07:30:12.018Z,82.08
2023-04-26T07:35:13.532Z,86.30
2023-04-26T07:40:15.629Z,78.78
2023-04-26T07:45:17.235Z,73.29
2023-04-26T07:50:19.042Z,77.86
2023-04-26T07:55:21.504Z,73.91
2023-04-26T08:00:23.991Z,75.87
2023-04-26T08:05:26.751Z,74.33
2023-04-26T08:10:28.492Z,77.92
2023-04-26T08:15:30.342Z,78.50
2023-04-26T08:20:32.818Z,74.74
2023-04-26T08:25:34.814Z,78.88
2023-04-26T08:30:36.770Z,77.08
2023-04-26T08:35:38.405Z,71.39
2023-04-26T08:40:43.254Z,69.95
2023-04-26T08:45:46.527Z,65.86
2023-04-26T08:50:48.441Z,61.77
2023-04-26T08:55:50.970Z,64.63
2023-04-26T09:00:52.908Z,63.61
2023-04-26T09:05:55.311Z,60.35
2023-04-26T09:11:01.041Z,59.05
2023-04-26T09:16:04.761Z,61.57
2023-04-26T09:21:08.936Z,62.83
2023-04-26T09:26:17.734Z,62.40
2023-04-26T09:31:43.051Z,51.38
2023-04-26T09:36:52.728Z,44.56
2023-04-26T09:41:54.531Z,48.13
2023-04-26T09:47:10.947Z,49.06
2023-04-26T09:52:12.481Z,51.87
2023-04-26T09:57:15.971Z,49.84
2023-04-26T10:02:26.015Z,50.95
2023-04-26T10:07:30.285Z,49.59
2023-04-26T10:12:31.882Z,47.04
2023-04-26T10:17:33.553Z,46.03
2023-04-26T10:22:40.569Z,43.33
2023-04-26T10:27:45.285Z,41.96
2023-04-26T10:32:52.861Z,41.16
2023-04-26T10:38:01.149Z,40.61
2023-04-26T10:43:08.696Z,40.43
2023-04-26T10:48:23.770Z,39.65
2023-04-26T10:53:25.881Z,38.21
2023-04-26T10:58:34.213Z,38.25
2023-04-26T11:03:36.199Z,42.44
2023-04-26T11:08:38.261Z,42.98
2023-04-26T11:13:44.062Z,41.32
2023-04-26T11:18:47.302Z,41.09
2023-04-26T11:23:55.481Z,40.11
2023-04-26T11:28:57.091Z,41.60
2023-04-26T11:34:04.729Z,44.31
2023-04-26T11:39:06.971Z,44.68
2023-04-26T11:44:11.502Z,43.12
2023-04-26T11:49:13.802Z,43.87
2023-04-26T11:54:36.132Z,40.99
2023-04-26T11:59:37.922Z,42.88
2023-04-26T12:04:40.832Z,41.85
2023-04-26T12:09:42.809Z,41.48
2023-04-26T12:14:47.119Z,39.56
2023-04-26T12:19:50.032Z,41.72
2023-04-26T12:25:04.481Z,41.43
2023-04-26T12:30:07.009Z,38.83
2023-04-26T12:35:09.146Z,36.50
2023-04-26T12:40:11.714Z,36.43
2023-04-26T12:45:13.577Z,44.10
2023-04-26T12:50:17.970Z,41.88
2023-04-26T12:55:20.799Z,39.31
2023-04-26T13:00:22.859Z,39.97
2023-04-26T13:05:27.196Z,42.25
2023-04-26T13:10:28.869Z,41.70
2023-04-26T13:15:30.773Z,40.63
2023-04-26T13:20:32.575Z,38.93
2023-04-26T13:25:34.428Z,39.54
2023-04-26T13:30:36.057Z,38.77
2023-04-26T13:35:37.947Z,37.31
2023-04-26T13:40:39.770Z,36.52
2023-04-26T13:45:41.325Z,34.87
2023-04-26T13:50:42.856Z,33.41
2023-04-26T13:55:44.394Z,33.34
2023-04-26T14:00:45.982Z,38.15
2023-04-26T14:05:47.548Z,34.47
2023-04-26T14:10:49.160Z,36.92
2023-04-26T14:15:50.858Z,38.41
2023-04-26T14:20:53.536Z,33.48
2023-04-26T14:25:55.167Z,37.50
2023-04-26T14:30:59.641Z,38.54
2023-04-26T14:36:01.384Z,39.46
2023-04-26T14:41:03.183Z,35.39
2023-04-26T14:46:05.801Z,39.23
2023-04-26T14:51:07.350Z,37.83
2023-04-26T14:56:09.069Z,37.00
2023-04-26T15:01:10.927Z,33.31
2023-04-26T15:06:12.936Z,30.79
2023-04-26T15:11:14.838Z,29.59
2023-04-26T15:16:17.860Z,32.94
2023-04-26T15:21:19.659Z,32.71
2023-04-26T15:26:21.540Z,32.64
2023-04-26T15:31:23.268Z,35.05
2023-04-26T15:36:25.375Z,36.06
2023-04-26T15:41:27.166Z,37.01
2023-04-26T15:46:28.751Z,37.87
2023-04-26T15:51:30.492Z,38.76
2023-04-26T15:56:32.096Z,38.30
2023-04-26T16:01:33.774Z,37.96
2023-04-26T16:06:35.570Z,38.38
2023-04-26T16:11:37.295Z,37.70
2023-04-26T16:16:40.150Z,38.67
2023-04-26T16:21:41.929Z,36.41
2023-04-26T16:26:43.676Z,37.46
2023-04-26T16:31:45.458Z,36.79
2023-04-26T16:36:47.195Z,37.28
2023-04-26T16:41:49.007Z,37.06
2023-04-26T16:46:50.985Z,38.67
2023-04-26T16:51:52.509Z,41.10
2023-04-26T16:56:54.269Z,41.50
2023-04-26T17:01:55.862Z,41.91
2023-04-26T17:06:57.418Z,40.44
2023-04-26T17:11:59.070Z,40.00
2023-04-26T17:17:00.763Z,40.41
2023-04-26T17:22:02.441Z,40.92
2023-04-26T17:27:03.977Z,41.20
2023-04-26T17:32:05.758Z,43.18
2023-04-26T17:37:07.528Z,45.18
2023-04-26T17:42:09.025Z,46.21
2023-04-26T17:47:10.594Z,45.14
2023-04-26T17:52:12.121Z,45.42
2023-04-26T17:57:13.748Z,46.72
2023-04-26T18:02:15.321Z,48.05
2023-04-26T18:07:16.868Z,49.32
2023-04-26T18:12:18.429Z,47.84
2023-04-26T18:17:21.090Z,49.14
2023-04-26T18:22:22.783Z,50.14
2023-04-26T18:27:24.363Z,50.35
2023-04-26T18:32:26.052Z,51.21
2023-04-26T18:37:27.872Z,54.74
2023-04-26T18:42:32.285Z,55.92
2023-04-26T18:47:33.920Z,57.80
2023-04-26T18:52:35.472Z,57.75
2023-04-26T18:57:37.028Z,58.16
2023-04-26T19:02:38.767Z,57.27
2023-04-26T19:07:40.367Z,57.35
2023-04-26T19:12:41.886Z,56.37
2023-04-26T19:17:43.440Z,56.82
2023-04-26T19:22:45.301Z,56.88
2023-04-26T19:27:47.290Z,57.81
2023-04-26T19:32:48.868Z,58.15
2023-04-26T19:37:50.865Z,59.21
2023-04-26T19:42:52.395Z,58.93
2023-04-26T19:47:53.925Z,59.88
2023-04-26T19:52:55.569Z,59.59
2023-04-26T19:57:57.174Z,61.17
2023-04-26T20:02:58.938Z,61.81
2023-04-26T20:08:01.946Z,59.55
2023-04-26T20:13:04.010Z,60.86
2023-04-26T20:18:06.202Z,60.39
2023-04-26T20:23:07.779Z,60.97
2023-04-26T20:28:09.464Z,61.31
2023-04-26T20:33:11.084Z,62.46
2023-04-26T20:38:12.698Z,62.15
2023-04-26T20:43:14.699Z,62.78
2023-04-26T20:48:16.230Z,61.68
2023-04-26T20:53:17.757Z,62.94
2023-04-26T20:58:19.522Z,61.59
2023-04-26T21:03:21.956Z,61.20
2023-04-26T21:08:23.729Z,63.21
2023-04-26T21:13:25.232Z,61.89
2023-04-26T21:18:26.838Z,62.46
2023-04-26T21:23:28.427Z,63.22
2023-04-26T21:28:30.044Z,64.09
2023-04-26T21:33:32.444Z,64.61
2023-04-26T21:38:34.102Z,65.30
2023-04-26T21:43:35.640Z,66.02
2023-04-26T21:48:37.180Z,66.99
2023-04-26T21:53:38.700Z,67.06
2023-04-26T21:58:41.034Z,66.34
2023-04-26T22:03:42.965Z,66.93
2023-04-26T22:08:44.625Z,66.00
2023-04-26T22:13:46.230Z,66.49
2023-04-26T22:18:47.732Z,66.77
2023-04-26T22:23:49.369Z,67.14
2023-04-26T22:28:50.854Z,66.69
2023-04-26T22:33:52.386Z,67.52
2023-04-26T22:38:53.911Z,66.01
2023-04-26T22:43:55.543Z,67.86
2023-04-26T22:48:57.395Z,69.08
2023-04-26T22:53:58.937Z,67.78
2023-04-26T22:59:01.989Z,67.56
2023-04-26T23:04:03.719Z,68.85
2023-04-26T23:09:05.532Z,68.46
2023-04-26T23:14:07.421Z,70.47
2023-04-26T23:19:08.990Z,72.20
2023-04-26T23:24:10.533Z,72.05
2023-04-26T23:29:12.370Z,74.49
2023-04-26T23:34:14.176Z,74.47
2023-04-26T23:39:15.922Z,73.83
2023-04-26T23:44:17.554Z,74.51
2023-04-26T23:49:19.231Z,72.16
2023-04-26T23:54:20.957Z,71.06
2023-04-26T23:59:22.772Z,72.44
